This is the latest recevied weather packets stored in our database for station/object PY1LEO-13. If no packets are shown the sender has not sent any weather packets the latest 10 day(s).
| Time | Temp. | Humidity | Pressure | Rain* | Wind** | Luminosity | Snow |
|---|---|---|---|---|---|---|---|
| 1777902064 | 27.22° C | 52% | 1022.3 hPa | - | - | - | - |
| 1777901764 | 27.22° C | 51% | 1022.3 hPa | - | - | - | - |
| 1777901464 | 26.67° C | 54% | 1022.3 hPa | - | - | - | - |
| 1777901164 | 26.11° C | 55% | 1022.3 hPa | - | - | - | - |
| 1777900864 | 26.67° C | 52% | 1022.3 hPa | - | - | - | - |
| 1777900564 | 26.11° C | 54% | 1022.4 hPa | - | - | - | - |
| 1777900264 | 26.11° C | 54% | 1022.4 hPa | - | - | - | - |
| 1777899964 | 25.56° C | 55% | 1022.5 hPa | - | - | - | - |
| 1777899664 | 25.56° C | 56% | 1022.6 hPa | - | - | - | - |
| 1777899364 | 26.11° C | 55% | 1022.7 hPa | - | - | - | - |
| 1777899064 | 25.56° C | 56% | 1022.7 hPa | - | - | - | - |
| 1777898764 | 25.56° C | 56% | 1022.8 hPa | - | - | - | - |
| 1777898465 | 25.56° C | 57% | 1022.8 hPa | - | - | - | - |
| 1777898164 | 25.56° C | 56% | 1022.9 hPa | - | - | - | - |
| 1777897864 | 25° C | 58% | 1022.9 hPa | - | - | - | - |
| 1777897564 | 25.56° C | 57% | 1022.8 hPa | - | - | - | - |
| 1777897264 | 25.56° C | 57% | 1022.8 hPa | - | - | - | - |
| 1777896964 | 25.56° C | 58% | 1022.7 hPa | - | - | - | - |
| 1777896664 | 25.56° C | 58% | 1022.6 hPa | - | - | - | - |
| 1777896365 | 25.56° C | 58% | 1022.6 hPa | - | - | - | - |
| 1777896064 | 25.56° C | 58% | 1022.5 hPa | - | - | - | - |
| 1777895764 | 25.56° C | 58% | 1022.4 hPa | - | - | - | - |
| 1777895464 | 25.56° C | 58% | 1022.3 hPa | - | - | - | - |
| 1777895164 | 25.56° C | 58% | 1022.2 hPa | - | - | - | - |
| 1777894864 | 25° C | 59% | 1022.2 hPa | - | - | - | - |
* Rain since midnight (hover to see other rain measurements)
** Current wind speed in m/s (hover to see current wind gust speed)